sensor_id;sensor_type;location;lat;lon;timestamp;temperature;humidity
40253;DHT22;25972;51.854;4.534;2023-12-28T00:01:36;9.90;99.90
40253;DHT22;25972;51.854;4.534;2023-12-28T00:04:03;9.90;99.90
40253;DHT22;25972;51.854;4.534;2023-12-28T00:06:29;9.90;99.90
40253;DHT22;25972;51.854;4.534;2023-12-28T00:08:55;9.90;99.90
40253;DHT22;25972;51.854;4.534;2023-12-28T00:11:21;9.90;99.90
40253;DHT22;25972;51.854;4.534;2023-12-28T00:13:47;9.90;99.90
40253;DHT22;25972;51.854;4.534;2023-12-28T00:16:13;9.90;99.90
40253;DHT22;25972;51.854;4.534;2023-12-28T00:18:40;9.90;99.90
40253;DHT22;25972;51.854;4.534;2023-12-28T00:21:06;9.90;99.90
40253;DHT22;25972;51.854;4.534;2023-12-28T00:23:32;9.90;99.90
40253;DHT22;25972;51.854;4.534;2023-12-28T00:25:58;9.90;99.90
40253;DHT22;25972;51.854;4.534;2023-12-28T00:28:24;9.90;99.90
40253;DHT22;25972;51.854;4.534;2023-12-28T00:30:50;9.80;99.90
40253;DHT22;25972;51.854;4.534;2023-12-28T00:33:16;9.90;99.90
40253;DHT22;25972;51.854;4.534;2023-12-28T00:35:44;9.90;99.90
40253;DHT22;25972;51.854;4.534;2023-12-28T00:38:10;9.90;99.90
40253;DHT22;25972;51.854;4.534;2023-12-28T00:40:36;9.80;99.90
40253;DHT22;25972;51.854;4.534;2023-12-28T00:43:02;9.90;99.90
40253;DHT22;25972;51.854;4.534;2023-12-28T00:45:28;9.90;99.90
40253;DHT22;25972;51.854;4.534;2023-12-28T00:47:54;9.90;99.90
40253;DHT22;25972;51.854;4.534;2023-12-28T00:50:22;9.90;99.90
40253;DHT22;25972;51.854;4.534;2023-12-28T00:52:49;9.90;99.90
40253;DHT22;25972;51.854;4.534;2023-12-28T00:55:15;9.90;99.90
40253;DHT22;25972;51.854;4.534;2023-12-28T00:57:41;9.80;99.90
40253;DHT22;25972;51.854;4.534;2023-12-28T01:00:08;9.80;99.90
40253;DHT22;25972;51.854;4.534;2023-12-28T01:02:34;9.80;99.90
40253;DHT22;25972;51.854;4.534;2023-12-28T01:05:01;9.90;99.90
40253;DHT22;25972;51.854;4.534;2023-12-28T01:07:27;9.90;99.90
40253;DHT22;25972;51.854;4.534;2023-12-28T01:09:54;9.90;99.90
40253;DHT22;25972;51.854;4.534;2023-12-28T01:12:20;9.90;99.90
40253;DHT22;25972;51.854;4.534;2023-12-28T01:14:46;9.90;99.90
40253;DHT22;25972;51.854;4.534;2023-12-28T01:17:12;9.90;99.90
40253;DHT22;25972;51.854;4.534;2023-12-28T01:19:38;9.90;99.90
40253;DHT22;25972;51.854;4.534;2023-12-28T01:22:04;9.90;99.90
40253;DHT22;25972;51.854;4.534;2023-12-28T01:24:30;10.00;99.90
40253;DHT22;25972;51.854;4.534;2023-12-28T01:26:58;10.00;99.90
40253;DHT22;25972;51.854;4.534;2023-12-28T01:29:24;9.90;99.90
40253;DHT22;25972;51.854;4.534;2023-12-28T01:31:50;9.80;99.90
40253;DHT22;25972;51.854;4.534;2023-12-28T01:34:16;9.80;99.90
40253;DHT22;25972;51.854;4.534;2023-12-28T01:36:41;9.80;99.90
40253;DHT22;25972;51.854;4.534;2023-12-28T01:39:10;9.80;99.90
40253;DHT22;25972;51.854;4.534;2023-12-28T01:41:39;9.80;99.90
40253;DHT22;25972;51.854;4.534;2023-12-28T01:44:07;9.80;99.90
40253;DHT22;25972;51.854;4.534;2023-12-28T01:46:33;9.90;99.90
40253;DHT22;25972;51.854;4.534;2023-12-28T01:49:00;9.90;99.90
40253;DHT22;25972;51.854;4.534;2023-12-28T01:51:27;9.90;99.90
40253;DHT22;25972;51.854;4.534;2023-12-28T01:53:54;9.90;99.90
40253;DHT22;25972;51.854;4.534;2023-12-28T01:56:21;9.80;99.90
40253;DHT22;25972;51.854;4.534;2023-12-28T01:58:49;9.90;99.90
40253;DHT22;25972;51.854;4.534;2023-12-28T02:01:17;9.90;99.90
40253;DHT22;25972;51.854;4.534;2023-12-28T02:03:43;9.90;99.90
40253;DHT22;25972;51.854;4.534;2023-12-28T02:06:10;9.90;99.90
40253;DHT22;25972;51.854;4.534;2023-12-28T02:08:36;9.90;99.90
40253;DHT22;25972;51.854;4.534;2023-12-28T02:11:03;9.90;99.90
40253;DHT22;25972;51.854;4.534;2023-12-28T02:13:29;9.90;99.90
40253;DHT22;25972;51.854;4.534;2023-12-28T02:16:00;9.80;99.90
40253;DHT22;25972;51.854;4.534;2023-12-28T02:18:33;9.90;99.90
40253;DHT22;25972;51.854;4.534;2023-12-28T02:21:02;9.80;99.90
40253;DHT22;25972;51.854;4.534;2023-12-28T02:23:28;9.80;99.90
40253;DHT22;25972;51.854;4.534;2023-12-28T02:25:56;9.80;99.90
40253;DHT22;25972;51.854;4.534;2023-12-28T02:28:22;9.80;99.90
40253;DHT22;25972;51.854;4.534;2023-12-28T02:30:48;9.80;99.90
40253;DHT22;25972;51.854;4.534;2023-12-28T02:33:19;9.80;99.90
40253;DHT22;25972;51.854;4.534;2023-12-28T02:35:51;9.80;99.90
40253;DHT22;25972;51.854;4.534;2023-12-28T02:38:18;9.90;99.90
40253;DHT22;25972;51.854;4.534;2023-12-28T02:40:44;9.90;99.90
40253;DHT22;25972;51.854;4.534;2023-12-28T02:43:13;9.90;99.90
40253;DHT22;25972;51.854;4.534;2023-12-28T02:45:39;9.90;99.90
40253;DHT22;25972;51.854;4.534;2023-12-28T02:48:06;9.90;99.90
40253;DHT22;25972;51.854;4.534;2023-12-28T02:50:33;9.90;99.90
40253;DHT22;25972;51.854;4.534;2023-12-28T02:53:00;9.90;99.90
40253;DHT22;25972;51.854;4.534;2023-12-28T02:55:26;9.90;99.90
40253;DHT22;25972;51.854;4.534;2023-12-28T02:57:54;9.90;99.90
40253;DHT22;25972;51.854;4.534;2023-12-28T03:00:22;9.90;99.90
40253;DHT22;25972;51.854;4.534;2023-12-28T03:02:48;9.90;99.90
40253;DHT22;25972;51.854;4.534;2023-12-28T03:05:14;9.90;99.90
40253;DHT22;25972;51.854;4.534;2023-12-28T03:07:40;9.80;99.90
40253;DHT22;25972;51.854;4.534;2023-12-28T03:10:08;9.80;99.90
40253;DHT22;25972;51.854;4.534;2023-12-28T03:12:35;9.80;99.90
40253;DHT22;25972;51.854;4.534;2023-12-28T03:15:01;9.80;99.90
40253;DHT22;25972;51.854;4.534;2023-12-28T03:17:28;9.70;99.90
40253;DHT22;25972;51.854;4.534;2023-12-28T03:19:56;9.70;99.90
40253;DHT22;25972;51.854;4.534;2023-12-28T03:22:22;9.70;99.90
40253;DHT22;25972;51.854;4.534;2023-12-28T03:24:48;9.70;99.90
40253;DHT22;25972;51.854;4.534;2023-12-28T03:27:14;9.70;99.90
40253;DHT22;25972;51.854;4.534;2023-12-28T03:29:41;9.70;99.90
40253;DHT22;25972;51.854;4.534;2023-12-28T03:32:07;9.70;99.90
40253;DHT22;25972;51.854;4.534;2023-12-28T03:34:35;9.70;99.90
40253;DHT22;25972;51.854;4.534;2023-12-28T03:37:01;9.70;99.90
40253;DHT22;25972;51.854;4.534;2023-12-28T03:39:27;9.70;99.90
40253;DHT22;25972;51.854;4.534;2023-12-28T03:41:54;9.60;99.90
40253;DHT22;25972;51.854;4.534;2023-12-28T03:44:20;9.60;99.90
40253;DHT22;25972;51.854;4.534;2023-12-28T03:46:47;9.60;99.90
40253;DHT22;25972;51.854;4.534;2023-12-28T03:49:15;9.70;99.90
40253;DHT22;25972;51.854;4.534;2023-12-28T03:51:43;9.70;99.90
40253;DHT22;25972;51.854;4.534;2023-12-28T03:54:09;9.70;99.90
40253;DHT22;25972;51.854;4.534;2023-12-28T03:56:35;9.70;99.90
40253;DHT22;25972;51.854;4.534;2023-12-28T03:59:01;9.80;99.90
40253;DHT22;25972;51.854;4.534;2023-12-28T04:01:27;9.70;99.90
40253;DHT22;25972;51.854;4.534;2023-12-28T04:03:53;9.70;99.90
40253;DHT22;25972;51.854;4.534;2023-12-28T04:06:19;9.70;99.90
40253;DHT22;25972;51.854;4.534;2023-12-28T04:08:46;9.80;99.90
40253;DHT22;25972;51.854;4.534;2023-12-28T04:11:12;9.80;99.90
40253;DHT22;25972;51.854;4.534;2023-12-28T04:13:38;9.90;99.90
40253;DHT22;25972;51.854;4.534;2023-12-28T04:16:05;9.90;99.90
40253;DHT22;25972;51.854;4.534;2023-12-28T04:18:32;10.00;99.90
40253;DHT22;25972;51.854;4.534;2023-12-28T04:20:58;10.00;99.90
40253;DHT22;25972;51.854;4.534;2023-12-28T04:23:24;10.00;99.90
40253;DHT22;25972;51.854;4.534;2023-12-28T04:25:52;10.00;99.90
40253;DHT22;25972;51.854;4.534;2023-12-28T04:28:18;10.00;99.90
40253;DHT22;25972;51.854;4.534;2023-12-28T04:30:44;10.00;99.90
40253;DHT22;25972;51.854;4.534;2023-12-28T04:33:11;10.10;99.90
40253;DHT22;25972;51.854;4.534;2023-12-28T04:35:37;10.10;99.90
40253;DHT22;25972;51.854;4.534;2023-12-28T04:38:03;10.10;99.90
40253;DHT22;25972;51.854;4.534;2023-12-28T04:40:29;10.10;99.90
40253;DHT22;25972;51.854;4.534;2023-12-28T04:42:57;10.20;99.90
40253;DHT22;25972;51.854;4.534;2023-12-28T04:45:23;10.20;99.90
40253;DHT22;25972;51.854;4.534;2023-12-28T04:47:49;10.20;99.90
40253;DHT22;25972;51.854;4.534;2023-12-28T04:50:15;10.20;99.90
40253;DHT22;25972;51.854;4.534;2023-12-28T04:52:41;10.20;99.90
40253;DHT22;25972;51.854;4.534;2023-12-28T04:55:08;10.30;99.90
40253;DHT22;25972;51.854;4.534;2023-12-28T04:57:33;10.20;99.90
40253;DHT22;25972;51.854;4.534;2023-12-28T05:00:01;10.20;99.90
40253;DHT22;25972;51.854;4.534;2023-12-28T05:02:27;10.30;99.90
40253;DHT22;25972;51.854;4.534;2023-12-28T05:04:53;10.30;99.90
40253;DHT22;25972;51.854;4.534;2023-12-28T05:07:19;10.30;99.90
40253;DHT22;25972;51.854;4.534;2023-12-28T05:09:45;10.30;99.90
40253;DHT22;25972;51.854;4.534;2023-12-28T05:12:11;10.30;99.90
40253;DHT22;25972;51.854;4.534;2023-12-28T05:14:37;10.30;99.90
40253;DHT22;25972;51.854;4.534;2023-12-28T05:17:05;10.30;99.90
40253;DHT22;25972;51.854;4.534;2023-12-28T05:19:30;10.30;99.90
40253;DHT22;25972;51.854;4.534;2023-12-28T05:21:56;10.30;99.90
40253;DHT22;25972;51.854;4.534;2023-12-28T05:24:22;10.30;99.90
40253;DHT22;25972;51.854;4.534;2023-12-28T05:26:49;10.30;99.90
40253;DHT22;25972;51.854;4.534;2023-12-28T05:29:14;10.40;99.90
40253;DHT22;25972;51.854;4.534;2023-12-28T05:31:40;10.40;99.90
40253;DHT22;25972;51.854;4.534;2023-12-28T05:34:08;10.40;99.90
40253;DHT22;25972;51.854;4.534;2023-12-28T05:36:34;10.40;99.90
40253;DHT22;25972;51.854;4.534;2023-12-28T05:39:00;10.50;99.90
40253;DHT22;25972;51.854;4.534;2023-12-28T05:41:25;10.40;99.90
40253;DHT22;25972;51.854;4.534;2023-12-28T05:43:52;10.40;99.90
40253;DHT22;25972;51.854;4.534;2023-12-28T05:46:18;10.50;99.90
40253;DHT22;25972;51.854;4.534;2023-12-28T05:48:44;10.50;99.90
40253;DHT22;25972;51.854;4.534;2023-12-28T05:51:12;10.50;99.90
40253;DHT22;25972;51.854;4.534;2023-12-28T05:53:38;10.50;99.90
40253;DHT22;25972;51.854;4.534;2023-12-28T05:56:04;10.50;99.90
40253;DHT22;25972;51.854;4.534;2023-12-28T05:58:30;10.50;99.90
40253;DHT22;25972;51.854;4.534;2023-12-28T06:00:57;10.50;99.90
40253;DHT22;25972;51.854;4.534;2023-12-28T06:03:22;10.50;99.90
40253;DHT22;25972;51.854;4.534;2023-12-28T06:05:54;10.50;99.90
40253;DHT22;25972;51.854;4.534;2023-12-28T06:08:21;10.50;99.90
40253;DHT22;25972;51.854;4.534;2023-12-28T06:10:47;10.50;99.90
40253;DHT22;25972;51.854;4.534;2023-12-28T06:13:13;10.40;99.90
40253;DHT22;25972;51.854;4.534;2023-12-28T06:15:39;10.50;99.90
40253;DHT22;25972;51.854;4.534;2023-12-28T06:18:05;10.50;99.90
40253;DHT22;25972;51.854;4.534;2023-12-28T06:20:31;10.50;99.90
40253;DHT22;25972;51.854;4.534;2023-12-28T06:22:57;10.40;99.90
40253;DHT22;25972;51.854;4.534;2023-12-28T06:25:25;10.40;99.90
40253;DHT22;25972;51.854;4.534;2023-12-28T06:27:51;10.30;99.90
40253;DHT22;25972;51.854;4.534;2023-12-28T06:30:17;10.30;99.90
40253;DHT22;25972;51.854;4.534;2023-12-28T06:32:43;10.20;99.90
40253;DHT22;25972;51.854;4.534;2023-12-28T06:35:09;10.30;99.90
40253;DHT22;25972;51.854;4.534;2023-12-28T06:37:35;10.30;99.90
40253;DHT22;25972;51.854;4.534;2023-12-28T06:40:01;10.30;99.90
40253;DHT22;25972;51.854;4.534;2023-12-28T06:42:28;10.30;99.90
40253;DHT22;25972;51.854;4.534;2023-12-28T06:44:55;10.20;99.90
40253;DHT22;25972;51.854;4.534;2023-12-28T06:47:21;10.20;99.90
40253;DHT22;25972;51.854;4.534;2023-12-28T06:49:47;10.10;99.90
40253;DHT22;25972;51.854;4.534;2023-12-28T06:52:13;10.20;99.90
40253;DHT22;25972;51.854;4.534;2023-12-28T06:54:40;10.20;99.90
40253;DHT22;25972;51.854;4.534;2023-12-28T06:57:06;10.10;99.90
40253;DHT22;25972;51.854;4.534;2023-12-28T06:59:37;10.00;99.90
40253;DHT22;25972;51.854;4.534;2023-12-28T07:02:03;10.00;99.90
40253;DHT22;25972;51.854;4.534;2023-12-28T07:04:29;10.00;99.90
40253;DHT22;25972;51.854;4.534;2023-12-28T07:06:55;10.00;99.90
40253;DHT22;25972;51.854;4.534;2023-12-28T07:09:21;10.00;99.90
40253;DHT22;25972;51.854;4.534;2023-12-28T07:11:47;10.00;99.90
40253;DHT22;25972;51.854;4.534;2023-12-28T07:14:13;10.00;99.90
40253;DHT22;25972;51.854;4.534;2023-12-28T07:16:40;10.10;99.90
40253;DHT22;25972;51.854;4.534;2023-12-28T07:19:06;10.20;99.90
40253;DHT22;25972;51.854;4.534;2023-12-28T07:21:32;10.10;99.90
40253;DHT22;25972;51.854;4.534;2023-12-28T07:23:58;10.20;99.90
40253;DHT22;25972;51.854;4.534;2023-12-28T07:26:24;10.10;99.90
40253;DHT22;25972;51.854;4.534;2023-12-28T07:28:51;10.10;99.90
40253;DHT22;25972;51.854;4.534;2023-12-28T07:31:23;10.20;99.90
40253;DHT22;25972;51.854;4.534;2023-12-28T07:33:51;10.20;99.90
40253;DHT22;25972;51.854;4.534;2023-12-28T07:36:18;10.20;99.90
40253;DHT22;25972;51.854;4.534;2023-12-28T07:38:44;10.20;99.90
40253;DHT22;25972;51.854;4.534;2023-12-28T07:41:10;10.20;99.90
40253;DHT22;25972;51.854;4.534;2023-12-28T07:43:36;10.20;99.90
40253;DHT22;25972;51.854;4.534;2023-12-28T07:46:02;10.20;99.90
40253;DHT22;25972;51.854;4.534;2023-12-28T07:48:29;10.10;99.90
40253;DHT22;25972;51.854;4.534;2023-12-28T07:50:57;10.10;99.90
40253;DHT22;25972;51.854;4.534;2023-12-28T07:53:23;10.10;99.90
40253;DHT22;25972;51.854;4.534;2023-12-28T07:55:50;10.20;99.90
40253;DHT22;25972;51.854;4.534;2023-12-28T07:58:16;10.10;99.90
40253;DHT22;25972;51.854;4.534;2023-12-28T08:00:42;10.10;99.90
40253;DHT22;25972;51.854;4.534;2023-12-28T08:03:08;10.10;99.90
40253;DHT22;25972;51.854;4.534;2023-12-28T08:05:34;10.10;99.90
40253;DHT22;25972;51.854;4.534;2023-12-28T08:08:01;10.20;99.90
40253;DHT22;25972;51.854;4.534;2023-12-28T08:10:28;10.10;99.90
40253;DHT22;25972;51.854;4.534;2023-12-28T08:12:54;10.20;99.90
40253;DHT22;25972;51.854;4.534;2023-12-28T08:15:20;10.20;99.90
40253;DHT22;25972;51.854;4.534;2023-12-28T08:17:46;10.20;99.90
40253;DHT22;25972;51.854;4.534;2023-12-28T08:20:12;10.20;99.90
40253;DHT22;25972;51.854;4.534;2023-12-28T08:22:38;10.30;99.90
40253;DHT22;25972;51.854;4.534;2023-12-28T08:25:06;10.30;99.90
40253;DHT22;25972;51.854;4.534;2023-12-28T08:27:32;10.30;99.90
40253;DHT22;25972;51.854;4.534;2023-12-28T08:29:58;10.30;99.90
40253;DHT22;25972;51.854;4.534;2023-12-28T08:32:24;10.30;99.90
40253;DHT22;25972;51.854;4.534;2023-12-28T08:34:50;10.30;99.90
40253;DHT22;25972;51.854;4.534;2023-12-28T08:37:16;10.40;99.90
40253;DHT22;25972;51.854;4.534;2023-12-28T08:39:42;10.30;99.90
40253;DHT22;25972;51.854;4.534;2023-12-28T08:42:09;10.30;99.90
40253;DHT22;25972;51.854;4.534;2023-12-28T08:44:35;10.30;99.90
40253;DHT22;25972;51.854;4.534;2023-12-28T08:47:02;10.30;99.90
40253;DHT22;25972;51.854;4.534;2023-12-28T08:49:29;10.30;99.90
40253;DHT22;25972;51.854;4.534;2023-12-28T08:51:55;10.30;99.90
40253;DHT22;25972;51.854;4.534;2023-12-28T08:54:21;10.30;99.90
40253;DHT22;25972;51.854;4.534;2023-12-28T08:56:47;10.40;99.90
40253;DHT22;25972;51.854;4.534;2023-12-28T08:59:15;10.40;99.90
40253;DHT22;25972;51.854;4.534;2023-12-28T09:01:41;10.40;99.90
40253;DHT22;25972;51.854;4.534;2023-12-28T09:04:07;10.50;99.90
40253;DHT22;25972;51.854;4.534;2023-12-28T09:06:33;10.50;99.90
40253;DHT22;25972;51.854;4.534;2023-12-28T09:09:03;10.50;99.90
40253;DHT22;25972;51.854;4.534;2023-12-28T09:11:29;10.50;99.90
40253;DHT22;25972;51.854;4.534;2023-12-28T09:13:55;10.50;99.90
40253;DHT22;25972;51.854;4.534;2023-12-28T09:16:23;10.50;99.90
40253;DHT22;25972;51.854;4.534;2023-12-28T09:18:49;10.60;99.90
40253;DHT22;25972;51.854;4.534;2023-12-28T09:21:15;10.60;99.90
40253;DHT22;25972;51.854;4.534;2023-12-28T09:23:41;10.60;99.90
40253;DHT22;25972;51.854;4.534;2023-12-28T09:26:08;10.60;99.90
40253;DHT22;25972;51.854;4.534;2023-12-28T09:28:34;10.60;99.90
40253;DHT22;25972;51.854;4.534;2023-12-28T09:31:01;10.60;99.90
40253;DHT22;25972;51.854;4.534;2023-12-28T09:33:28;10.60;99.90
40253;DHT22;25972;51.854;4.534;2023-12-28T09:35:54;10.60;99.90
40253;DHT22;25972;51.854;4.534;2023-12-28T09:38:21;10.70;99.90
40253;DHT22;25972;51.854;4.534;2023-12-28T09:40:50;10.70;99.90
40253;DHT22;25972;51.854;4.534;2023-12-28T09:43:22;10.70;99.90
40253;DHT22;25972;51.854;4.534;2023-12-28T09:45:49;10.70;99.90
40253;DHT22;25972;51.854;4.534;2023-12-28T09:48:16;10.70;99.90
40253;DHT22;25972;51.854;4.534;2023-12-28T09:50:44;10.70;99.90
40253;DHT22;25972;51.854;4.534;2023-12-28T09:53:12;10.70;99.90
40253;DHT22;25972;51.854;4.534;2023-12-28T09:55:38;10.70;99.90
40253;DHT22;25972;51.854;4.534;2023-12-28T09:58:04;10.70;99.90
40253;DHT22;25972;51.854;4.534;2023-12-28T10:00:31;10.80;99.90
40253;DHT22;25972;51.854;4.534;2023-12-28T10:02:57;10.80;99.90
40253;DHT22;25972;51.854;4.534;2023-12-28T10:05:23;10.80;99.90
40253;DHT22;25972;51.854;4.534;2023-12-28T10:07:50;10.80;99.90
40253;DHT22;25972;51.854;4.534;2023-12-28T10:10:17;10.80;99.90
40253;DHT22;25972;51.854;4.534;2023-12-28T10:12:43;10.80;99.90
40253;DHT22;25972;51.854;4.534;2023-12-28T10:15:11;10.70;99.90
40253;DHT22;25972;51.854;4.534;2023-12-28T10:17:37;10.70;99.90
40253;DHT22;25972;51.854;4.534;2023-12-28T10:20:04;10.70;99.90
40253;DHT22;25972;51.854;4.534;2023-12-28T10:22:32;10.70;99.90
40253;DHT22;25972;51.854;4.534;2023-12-28T10:25:01;10.70;99.90
40253;DHT22;25972;51.854;4.534;2023-12-28T10:27:28;10.70;99.90
40253;DHT22;25972;51.854;4.534;2023-12-28T10:29:54;10.70;99.90
40253;DHT22;25972;51.854;4.534;2023-12-28T10:32:21;10.70;99.90
40253;DHT22;25972;51.854;4.534;2023-12-28T10:34:49;10.80;99.90
40253;DHT22;25972;51.854;4.534;2023-12-28T10:37:16;10.80;99.90
40253;DHT22;25972;51.854;4.534;2023-12-28T10:39:46;10.80;99.90
40253;DHT22;25972;51.854;4.534;2023-12-28T10:42:19;10.80;99.90
40253;DHT22;25972;51.854;4.534;2023-12-28T10:44:49;10.80;99.90
40253;DHT22;25972;51.854;4.534;2023-12-28T10:47:18;10.70;99.90
40253;DHT22;25972;51.854;4.534;2023-12-28T10:49:48;10.70;99.90
40253;DHT22;25972;51.854;4.534;2023-12-28T10:52:20;10.70;99.90
40253;DHT22;25972;51.854;4.534;2023-12-28T10:54:56;10.70;99.90
40253;DHT22;25972;51.854;4.534;2023-12-28T10:57:29;10.80;99.90
40253;DHT22;25972;51.854;4.534;2023-12-28T11:00:02;10.80;99.90
40253;DHT22;25972;51.854;4.534;2023-12-28T11:02:38;10.80;99.90
40253;DHT22;25972;51.854;4.534;2023-12-28T11:05:05;10.80;99.90
40253;DHT22;25972;51.854;4.534;2023-12-28T11:07:33;10.80;99.90
40253;DHT22;25972;51.854;4.534;2023-12-28T11:10:02;10.80;99.90
40253;DHT22;25972;51.854;4.534;2023-12-28T11:12:32;10.90;99.90
40253;DHT22;25972;51.854;4.534;2023-12-28T11:14:59;10.90;99.90
40253;DHT22;25972;51.854;4.534;2023-12-28T11:17:25;10.90;99.90
40253;DHT22;25972;51.854;4.534;2023-12-28T11:19:53;11.00;99.90
40253;DHT22;25972;51.854;4.534;2023-12-28T11:22:20;11.00;99.90
40253;DHT22;25972;51.854;4.534;2023-12-28T11:24:46;11.00;99.90
40253;DHT22;25972;51.854;4.534;2023-12-28T11:27:12;11.10;99.90
40253;DHT22;25972;51.854;4.534;2023-12-28T11:29:41;11.10;99.90
40253;DHT22;25972;51.854;4.534;2023-12-28T11:32:09;11.20;99.90
40253;DHT22;25972;51.854;4.534;2023-12-28T11:34:35;11.30;99.90
40253;DHT22;25972;51.854;4.534;2023-12-28T11:37:04;11.20;99.90
40253;DHT22;25972;51.854;4.534;2023-12-28T11:39:32;11.20;99.90
40253;DHT22;25972;51.854;4.534;2023-12-28T11:42:03;11.20;99.90
40253;DHT22;25972;51.854;4.534;2023-12-28T11:44:30;11.30;99.90
40253;DHT22;25972;51.854;4.534;2023-12-28T11:46:58;11.20;99.90
40253;DHT22;25972;51.854;4.534;2023-12-28T11:49:27;11.20;99.90
40253;DHT22;25972;51.854;4.534;2023-12-28T11:51:57;11.20;99.90
40253;DHT22;25972;51.854;4.534;2023-12-28T11:54:25;11.20;99.90
40253;DHT22;25972;51.854;4.534;2023-12-28T11:56:54;11.20;99.90
40253;DHT22;25972;51.854;4.534;2023-12-28T11:59:20;11.20;99.90
40253;DHT22;25972;51.854;4.534;2023-12-28T12:01:49;11.20;99.90
40253;DHT22;25972;51.854;4.534;2023-12-28T12:04:17;11.20;99.90
40253;DHT22;25972;51.854;4.534;2023-12-28T12:06:44;11.30;99.90
40253;DHT22;25972;51.854;4.534;2023-12-28T12:09:12;11.30;99.90
40253;DHT22;25972;51.854;4.534;2023-12-28T12:11:38;11.30;99.90
40253;DHT22;25972;51.854;4.534;2023-12-28T12:14:08;11.20;99.90
40253;DHT22;25972;51.854;4.534;2023-12-28T12:16:34;11.30;99.90
40253;DHT22;25972;51.854;4.534;2023-12-28T12:19:01;11.20;99.90
40253;DHT22;25972;51.854;4.534;2023-12-28T12:21:28;11.20;99.90
40253;DHT22;25972;51.854;4.534;2023-12-28T12:23:54;11.30;99.90
40253;DHT22;25972;51.854;4.534;2023-12-28T12:26:21;11.20;99.90
40253;DHT22;25972;51.854;4.534;2023-12-28T12:28:47;11.20;99.90
40253;DHT22;25972;51.854;4.534;2023-12-28T12:31:14;11.20;99.90
40253;DHT22;25972;51.854;4.534;2023-12-28T12:33:41;11.20;99.90
40253;DHT22;25972;51.854;4.534;2023-12-28T12:36:07;11.20;99.90
40253;DHT22;25972;51.854;4.534;2023-12-28T12:38:35;11.20;99.90
40253;DHT22;25972;51.854;4.534;2023-12-28T12:41:01;11.20;99.90
40253;DHT22;25972;51.854;4.534;2023-12-28T12:43:27;11.20;99.90
40253;DHT22;25972;51.854;4.534;2023-12-28T12:45:53;11.20;99.90
40253;DHT22;25972;51.854;4.534;2023-12-28T12:48:19;11.10;99.90
40253;DHT22;25972;51.854;4.534;2023-12-28T12:50:45;11.10;99.90
40253;DHT22;25972;51.854;4.534;2023-12-28T12:53:12;11.10;99.90
40253;DHT22;25972;51.854;4.534;2023-12-28T12:55:39;11.10;99.90
40253;DHT22;25972;51.854;4.534;2023-12-28T12:58:08;11.00;99.90
40253;DHT22;25972;51.854;4.534;2023-12-28T13:00:35;11.10;99.90
40253;DHT22;25972;51.854;4.534;2023-12-28T13:03:01;11.10;99.90
40253;DHT22;25972;51.854;4.534;2023-12-28T13:05:29;11.10;99.90
40253;DHT22;25972;51.854;4.534;2023-12-28T13:07:55;11.10;99.90
40253;DHT22;25972;51.854;4.534;2023-12-28T13:10:21;11.10;99.90
40253;DHT22;25972;51.854;4.534;2023-12-28T13:12:48;11.10;99.90
40253;DHT22;25972;51.854;4.534;2023-12-28T13:15:14;11.10;99.90
40253;DHT22;25972;51.854;4.534;2023-12-28T13:17:41;11.10;99.90
40253;DHT22;25972;51.854;4.534;2023-12-28T13:20:08;11.20;99.90
40253;DHT22;25972;51.854;4.534;2023-12-28T13:22:35;11.20;99.90
40253;DHT22;25972;51.854;4.534;2023-12-28T13:25:01;11.20;99.90
40253;DHT22;25972;51.854;4.534;2023-12-28T13:27:27;11.10;99.90
40253;DHT22;25972;51.854;4.534;2023-12-28T13:29:55;11.10;99.90
40253;DHT22;25972;51.854;4.534;2023-12-28T13:32:21;11.10;99.90
40253;DHT22;25972;51.854;4.534;2023-12-28T13:34:48;11.10;99.90
40253;DHT22;25972;51.854;4.534;2023-12-28T13:37:16;11.10;99.90
40253;DHT22;25972;51.854;4.534;2023-12-28T13:39:42;11.10;99.90
40253;DHT22;25972;51.854;4.534;2023-12-28T13:42:08;11.00;99.90
40253;DHT22;25972;51.854;4.534;2023-12-28T13:44:34;11.10;99.90
40253;DHT22;25972;51.854;4.534;2023-12-28T13:47:05;11.10;99.90
40253;DHT22;25972;51.854;4.534;2023-12-28T13:49:34;11.10;99.90
40253;DHT22;25972;51.854;4.534;2023-12-28T13:52:00;11.00;99.90
40253;DHT22;25972;51.854;4.534;2023-12-28T13:54:26;11.00;99.90
40253;DHT22;25972;51.854;4.534;2023-12-28T13:56:53;11.00;99.90
40253;DHT22;25972;51.854;4.534;2023-12-28T13:59:23;11.00;99.90
40253;DHT22;25972;51.854;4.534;2023-12-28T14:01:49;10.90;99.90
40253;DHT22;25972;51.854;4.534;2023-12-28T14:04:17;11.00;99.90
40253;DHT22;25972;51.854;4.534;2023-12-28T14:06:43;11.00;99.90
40253;DHT22;25972;51.854;4.534;2023-12-28T14:09:09;11.00;99.90
40253;DHT22;25972;51.854;4.534;2023-12-28T14:11:35;11.00;99.90
40253;DHT22;25972;51.854;4.534;2023-12-28T14:14:01;11.00;99.90
40253;DHT22;25972;51.854;4.534;2023-12-28T14:16:27;11.00;99.90
40253;DHT22;25972;51.854;4.534;2023-12-28T14:18:53;11.00;99.90
40253;DHT22;25972;51.854;4.534;2023-12-28T14:21:21;11.00;99.90
40253;DHT22;25972;51.854;4.534;2023-12-28T14:23:48;11.00;99.90
40253;DHT22;25972;51.854;4.534;2023-12-28T14:26:16;11.00;99.90
40253;DHT22;25972;51.854;4.534;2023-12-28T14:28:43;11.00;99.90
40253;DHT22;25972;51.854;4.534;2023-12-28T14:31:13;11.00;99.90
40253;DHT22;25972;51.854;4.534;2023-12-28T14:33:40;11.00;99.90
40253;DHT22;25972;51.854;4.534;2023-12-28T14:36:14;11.00;99.90
40253;DHT22;25972;51.854;4.534;2023-12-28T14:38:43;11.00;99.90
40253;DHT22;25972;51.854;4.534;2023-12-28T14:41:09;11.10;99.90
40253;DHT22;25972;51.854;4.534;2023-12-28T14:43:35;11.10;99.90
40253;DHT22;25972;51.854;4.534;2023-12-28T14:46:01;11.10;99.90
40253;DHT22;25972;51.854;4.534;2023-12-28T14:48:28;11.10;99.90
40253;DHT22;25972;51.854;4.534;2023-12-28T14:50:54;11.00;99.90
40253;DHT22;25972;51.854;4.534;2023-12-28T14:53:20;11.00;99.90
40253;DHT22;25972;51.854;4.534;2023-12-28T14:55:47;11.10;99.90
40253;DHT22;25972;51.854;4.534;2023-12-28T14:58:13;11.10;99.90
40253;DHT22;25972;51.854;4.534;2023-12-28T15:00:39;11.10;99.90
40253;DHT22;25972;51.854;4.534;2023-12-28T15:03:05;11.00;99.90
40253;DHT22;25972;51.854;4.534;2023-12-28T15:05:32;11.00;99.90
40253;DHT22;25972;51.854;4.534;2023-12-28T15:07:58;11.00;99.90
40253;DHT22;25972;51.854;4.534;2023-12-28T15:10:25;11.00;99.90
40253;DHT22;25972;51.854;4.534;2023-12-28T15:12:56;11.00;99.90
40253;DHT22;25972;51.854;4.534;2023-12-28T15:15:22;11.00;99.90
40253;DHT22;25972;51.854;4.534;2023-12-28T15:17:49;11.00;99.90
40253;DHT22;25972;51.854;4.534;2023-12-28T15:20:15;11.00;99.90
40253;DHT22;25972;51.854;4.534;2023-12-28T15:22:42;11.00;99.90
40253;DHT22;25972;51.854;4.534;2023-12-28T15:25:08;10.90;99.90
40253;DHT22;25972;51.854;4.534;2023-12-28T15:27:34;10.90;99.90
40253;DHT22;25972;51.854;4.534;2023-12-28T15:30:02;10.90;99.90
40253;DHT22;25972;51.854;4.534;2023-12-28T15:32:28;10.90;99.90